Last Tycoon — ZDJZ6 — position and weather

sailwx.info

Track history (hours):
 
Tides and Currents Weather Stations Pressure Air Temp Water Temp Dewpoint Dewpoint Depression Visibility Wind Speed Wind Dir Waves Ship Positions

Last Tycoon

Last reported at 2017-Mar-18 18:33 UTC. Time now 2017-Mar-29 15:10 UTC.
Position N 09°16' W 079°55'.
Warning: this ship's position is 10 days out of date.

Length 180 m; draft 10.6 m.

Type: Cargo ship. MMSI: 236607000.

Date/timePositionNaut miles runAvg speedWind from/ knotsBaromVisibWave heightAir tempDewpointWater temp
2017-Mar-18 18:33N 09°16' W 079°55'1 0.8
2017-Mar-18 17:34N 09°17' W 079°55'0 0.3
2017-Mar-18 16:33N 09°17' W 079°55'1 1.2
2017-Mar-18 15:33N 09°18' W 079°55'6 6.0
2017-Mar-18 14:34N 09°24' W 079°55'1 1.0
2017-Mar-18 13:28N 09°24' W 079°56'0 0.0
2017-Mar-18 12:31N 09°24' W 079°56'0 0.0
2017-Mar-18 11:31N 09°24' W 079°56'0 0.0
2017-Mar-18 10:31N 09°24' W 079°56'0 0.0
2017-Mar-18 09:31N 09°24' W 079°56'0 0.0
2017-Mar-18 08:31N 09°24' W 079°56'0 0.0
2017-Mar-18 07:28N 09°24' W 079°56'0 0.0
2017-Mar-18 06:31N 09°24' W 079°56'0 0.0
2017-Mar-18 05:25N 09°24' W 079°56'0 0.0
2017-Mar-18 01:28N 09°24' W 079°56'0 0.0
2017-Mar-18 00:31N 09°24' W 079°56'0 0.0
2017-Mar-17 23:31N 09°24' W 079°56'0 0.0
2017-Mar-17 22:31N 09°24' W 079°56'0 0.0
2017-Mar-17 21:28N 09°24' W 079°56'0 0.0
2017-Mar-17 20:28N 09°24' W 079°56'0 0.0
2017-Mar-17 19:28N 09°24' W 079°56'0 0.0
2017-Mar-17 18:25N 09°24' W 079°56'0 0.0
2017-Mar-17 17:31N 09°24' W 079°56'0 0.0
2017-Mar-17 16:31N 09°24' W 079°56'0 0.0
2017-Mar-17 15:31N 09°24' W 079°56'0 0.0
2017-Mar-17 14:31N 09°24' W 079°56'0 0.0
2017-Mar-17 13:28N 09°24' W 079°56'0 0.0
2017-Mar-17 12:28N 09°24' W 079°56'0 0.0
2017-Mar-17 11:13N 09°24' W 079°56'0 0.0
2017-Mar-17 10:31N 09°24' W 079°56'0 0.0
2017-Mar-17 09:31N 09°24' W 079°56'0 0.0
2017-Mar-17 08:28N 09°24' W 079°56'0 0.0
2017-Mar-17 07:31N 09°24' W 079°56'0 0.0
2017-Mar-17 06:31N 09°24' W 079°56'0 0.0
2017-Mar-17 05:28N 09°24' W 079°56'0 0.0
2017-Mar-17 04:31N 09°24' W 079°56'0 0.0
2017-Mar-17 03:28N 09°24' W 079°56'0 0.0
2017-Mar-17 02:28N 09°24' W 079°56'0 0.0
2017-Mar-17 01:28N 09°24' W 079°56'0 0.0
2017-Mar-17 00:31N 09°24' W 079°56'0 0.0
2017-Mar-16 23:31N 09°24' W 079°56'2 1.7
2017-Mar-16 22:33N 09°26' W 079°55'7 6.8
2017-Mar-16 21:30N 09°32' W 079°53'  
Track history (hours):
 
Tides and Currents Weather Stations Pressure Air Temp Water Temp Dewpoint Dewpoint Depression Visibility Wind Speed Wind Dir Waves Ship Positions

Last Tycoon

Last reported at 2017-Mar-18 18:33 UTC. Time now 2017-Mar-29 15:10 UTC.
Position N 09°16' W 079°55'.
Warning: this ship's position is 10 days out of date.

Length 180 m; draft 10.6 m.

Type: Cargo ship. MMSI: 236607000.

Date/timePositionNaut miles runAvg speedWind from/ knotsBaromVisibWave heightAir tempDewpointWater temp
2017-Mar-18 18:33N 09°16' W 079°55'1 0.8
2017-Mar-18 17:34N 09°17' W 079°55'0 0.3
2017-Mar-18 16:33N 09°17' W 079°55'1 1.2
2017-Mar-18 15:33N 09°18' W 079°55'6 6.0
2017-Mar-18 14:34N 09°24' W 079°55'1 1.0
2017-Mar-18 13:28N 09°24' W 079°56'0 0.0
2017-Mar-18 12:31N 09°24' W 079°56'0 0.0
2017-Mar-18 11:31N 09°24' W 079°56'0 0.0
2017-Mar-18 10:31N 09°24' W 079°56'0 0.0
2017-Mar-18 09:31N 09°24' W 079°56'0 0.0
2017-Mar-18 08:31N 09°24' W 079°56'0 0.0
2017-Mar-18 07:28N 09°24' W 079°56'0 0.0
2017-Mar-18 06:31N 09°24' W 079°56'0 0.0
2017-Mar-18 05:25N 09°24' W 079°56'0 0.0
2017-Mar-18 01:28N 09°24' W 079°56'0 0.0
2017-Mar-18 00:31N 09°24' W 079°56'0 0.0
2017-Mar-17 23:31N 09°24' W 079°56'0 0.0
2017-Mar-17 22:31N 09°24' W 079°56'0 0.0
2017-Mar-17 21:28N 09°24' W 079°56'0 0.0
2017-Mar-17 20:28N 09°24' W 079°56'0 0.0
2017-Mar-17 19:28N 09°24' W 079°56'0 0.0
2017-Mar-17 18:25N 09°24' W 079°56'0 0.0
2017-Mar-17 17:31N 09°24' W 079°56'0 0.0
2017-Mar-17 16:31N 09°24' W 079°56'0 0.0
2017-Mar-17 15:31N 09°24' W 079°56'0 0.0
2017-Mar-17 14:31N 09°24' W 079°56'0 0.0
2017-Mar-17 13:28N 09°24' W 079°56'0 0.0
2017-Mar-17 12:28N 09°24' W 079°56'0 0.0
2017-Mar-17 11:13N 09°24' W 079°56'0 0.0
2017-Mar-17 10:31N 09°24' W 079°56'0 0.0
2017-Mar-17 09:31N 09°24' W 079°56'0 0.0
2017-Mar-17 08:28N 09°24' W 079°56'0 0.0
2017-Mar-17 07:31N 09°24' W 079°56'0 0.0
2017-Mar-17 06:31N 09°24' W 079°56'0 0.0
2017-Mar-17 05:28N 09°24' W 079°56'0 0.0
2017-Mar-17 04:31N 09°24' W 079°56'0 0.0
2017-Mar-17 03:28N 09°24' W 079°56'0 0.0
2017-Mar-17 02:28N 09°24' W 079°56'0 0.0
2017-Mar-17 01:28N 09°24' W 079°56'0 0.0
2017-Mar-17 00:31N 09°24' W 079°56'0 0.0
2017-Mar-16 23:31N 09°24' W 079°56'2 1.7
2017-Mar-16 22:33N 09°26' W 079°55'7 6.8
2017-Mar-16 21:30N 09°32' W 079°53'  

Dump ship's entire track history